HRT168 KDEN-KLAX
Flight info
| Callsign | HRT168 |
|---|---|
| Flight time | N/A |
| Altitude | 40000 |
| Route | BAYLR6 TEHRU JASSE Q90 DNERO ANJLL4 |
| Aircraft | CL60/M-SBDE1E2E3FGHIJ1J3J4J5M3P2RWXYZ/LB1D1G1 |
Departure
| Time | N/A |
|---|---|
| Airport | Denver International Airport (KDEN) |
Arrival
| Time | 2026-04-20 05:39 |
|---|---|
| Airport | Los Angeles International Airport (KLAX) |
| Time | Latitude | Longitude | Altitude | Speed | Heading |
|---|---|---|---|---|---|
| 2026-04-20 04:57 | 35.44559 | -113.71684 | 38134 ft | 430 kts | 246° |
| 2026-04-20 04:58 | 35.43421 | -113.75034 | 38121 ft | 431 kts | 246° |
| 2026-04-20 04:58 | 35.41114 | -113.81811 | 38107 ft | 432 kts | 246° |
| 2026-04-20 04:59 | 35.38804 | -113.88586 | 38063 ft | 432 kts | 246° |
| 2026-04-20 04:59 | 35.36474 | -113.95406 | 38060 ft | 432 kts | 246° |
| 2026-04-20 05:00 | 35.34167 | -114.02144 | 38043 ft | 432 kts | 246° |
| 2026-04-20 05:00 | 35.31842 | -114.08921 | 38049 ft | 432 kts | 246° |
| 2026-04-20 05:01 | 35.29524 | -114.15661 | 38066 ft | 432 kts | 246° |
| 2026-04-20 05:01 | 35.27182 | -114.22458 | 38056 ft | 433 kts | 246° |
| 2026-04-20 05:02 | 35.24843 | -114.29230 | 38042 ft | 432 kts | 246° |
| 2026-04-20 05:02 | 35.22503 | -114.35992 | 38009 ft | 432 kts | 246° |
| 2026-04-20 05:03 | 35.20173 | -114.42712 | 37978 ft | 432 kts | 246° |
| 2026-04-20 05:03 | 35.17823 | -114.49471 | 37928 ft | 433 kts | 246° |
| 2026-04-20 05:04 | 35.15467 | -114.56235 | 37957 ft | 433 kts | 247° |
| 2026-04-20 05:04 | 35.13103 | -114.63010 | 37960 ft | 433 kts | 247° |
| 2026-04-20 05:05 | 35.10764 | -114.69745 | 37987 ft | 434 kts | 246° |
| 2026-04-20 05:05 | 35.08406 | -114.76523 | 38028 ft | 434 kts | 246° |
| 2026-04-20 05:06 | 35.06044 | -114.83297 | 38026 ft | 434 kts | 247° |
| 2026-04-20 05:06 | 35.03675 | -114.90056 | 38007 ft | 434 kts | 246° |
| 2026-04-20 05:07 | 35.00919 | -114.96610 | 38018 ft | 434 kts | 242° |
| 2026-04-20 05:07 | 34.98100 | -115.03097 | 38006 ft | 435 kts | 242° |
| 2026-04-20 05:08 | 34.95262 | -115.09616 | 37998 ft | 435 kts | 242° |
| 2026-04-20 05:08 | 34.92439 | -115.16097 | 38001 ft | 434 kts | 242° |
| 2026-04-20 05:09 | 34.89609 | -115.22584 | 37989 ft | 434 kts | 242° |
| 2026-04-20 05:09 | 34.86761 | -115.29102 | 37987 ft | 434 kts | 243° |
| 2026-04-20 05:10 | 34.83941 | -115.35545 | 37989 ft | 434 kts | 243° |
| 2026-04-20 05:10 | 34.81109 | -115.42004 | 37996 ft | 433 kts | 243° |
| 2026-04-20 05:11 | 34.78388 | -115.48529 | 38011 ft | 432 kts | 246° |
| 2026-04-20 05:11 | 34.75952 | -115.55183 | 37995 ft | 432 kts | 246° |
| 2026-04-20 05:12 | 34.73511 | -115.61827 | 38013 ft | 431 kts | 246° |
| 2026-04-20 05:12 | 34.71057 | -115.68487 | 38010 ft | 432 kts | 246° |
| 2026-04-20 05:13 | 34.68587 | -115.75175 | 37995 ft | 431 kts | 246° |
| 2026-04-20 05:13 | 34.66132 | -115.81805 | 37996 ft | 431 kts | 246° |
| 2026-04-20 05:14 | 34.63685 | -115.88399 | 37974 ft | 430 kts | 246° |
| 2026-04-20 05:14 | 34.61230 | -115.95057 | 37958 ft | 430 kts | 246° |
| 2026-04-20 05:15 | 34.58779 | -116.01704 | 37974 ft | 431 kts | 246° |
| 2026-04-20 05:15 | 34.56334 | -116.08320 | 37958 ft | 432 kts | 246° |
| 2026-04-20 05:15 | 34.55100 | -116.11656 | 37581 ft | 436 kts | 247° |
| 2026-04-20 05:16 | 34.53869 | -116.14976 | 37062 ft | 432 kts | 247° |
| 2026-04-20 05:16 | 34.52640 | -116.18288 | 36483 ft | 428 kts | 247° |
| 2026-04-20 05:16 | 34.51420 | -116.21573 | 35925 ft | 426 kts | 248° |
| 2026-04-20 05:16 | 34.50217 | -116.24809 | 35454 ft | 427 kts | 248° |
| 2026-04-20 05:17 | 34.48992 | -116.28101 | 34915 ft | 430 kts | 248° |
| 2026-04-20 05:17 | 34.47774 | -116.31375 | 34310 ft | 432 kts | 248° |
| 2026-04-20 05:17 | 34.46522 | -116.34733 | 33695 ft | 433 kts | 249° |
| 2026-04-20 05:17 | 34.45287 | -116.38042 | 33160 ft | 434 kts | 249° |
| 2026-04-20 05:18 | 34.44034 | -116.41397 | 32564 ft | 437 kts | 249° |
| 2026-04-20 05:18 | 34.42788 | -116.44730 | 32013 ft | 440 kts | 249° |
| 2026-04-20 05:18 | 34.41508 | -116.48106 | 31431 ft | 442 kts | 247° |
| 2026-04-20 05:18 | 34.40142 | -116.51453 | 30827 ft | 444 kts | 246° |
| 2026-04-20 05:19 | 34.38780 | -116.54759 | 30254 ft | 442 kts | 246° |
| 2026-04-20 05:19 | 34.37410 | -116.58080 | 29691 ft | 437 kts | 246° |
| 2026-04-20 05:19 | 34.36063 | -116.61340 | 29121 ft | 430 kts | 246° |
| 2026-04-20 05:19 | 34.34754 | -116.64509 | 28580 ft | 423 kts | 246° |
| 2026-04-20 05:20 | 34.33437 | -116.67696 | 28031 ft | 417 kts | 246° |
| 2026-04-20 05:20 | 34.32181 | -116.70804 | 27501 ft | 410 kts | 246° |
| 2026-04-20 05:20 | 34.30953 | -116.73860 | 26980 ft | 405 kts | 245° |
| 2026-04-20 05:20 | 34.29729 | -116.76907 | 26462 ft | 401 kts | 246° |
| 2026-04-20 05:21 | 34.28524 | -116.79899 | 25953 ft | 399 kts | 245° |
| 2026-04-20 05:21 | 34.27312 | -116.82906 | 25435 ft | 395 kts | 245° |
| 2026-04-20 05:21 | 34.26114 | -116.85876 | 24902 ft | 392 kts | 245° |
| 2026-04-20 05:21 | 34.24923 | -116.88827 | 24400 ft | 388 kts | 244° |
| 2026-04-20 05:22 | 34.23756 | -116.91715 | 23896 ft | 386 kts | 244° |
| 2026-04-20 05:22 | 34.22590 | -116.94597 | 23389 ft | 382 kts | 244° |
| 2026-04-20 05:22 | 34.21429 | -116.97467 | 22876 ft | 379 kts | 244° |
| 2026-04-20 05:22 | 34.20488 | -117.00388 | 22375 ft | 376 kts | 251° |
| 2026-04-20 05:23 | 34.19684 | -117.03402 | 21843 ft | 374 kts | 251° |
| 2026-04-20 05:23 | 34.18892 | -117.06347 | 21319 ft | 371 kts | 251° |
| 2026-04-20 05:23 | 34.18096 | -117.09300 | 20815 ft | 368 kts | 251° |
| 2026-04-20 05:23 | 34.17308 | -117.12219 | 20318 ft | 366 kts | 251° |
| 2026-04-20 05:24 | 34.16523 | -117.15121 | 19811 ft | 364 kts | 250° |
| 2026-04-20 05:24 | 34.15738 | -117.17996 | 19321 ft | 361 kts | 250° |
| 2026-04-20 05:24 | 34.14948 | -117.20878 | 18842 ft | 360 kts | 250° |
| 2026-04-20 05:24 | 34.14162 | -117.23737 | 18353 ft | 359 kts | 250° |
| 2026-04-20 05:25 | 34.13381 | -117.26581 | 17851 ft | 357 kts | 250° |
| 2026-04-20 05:25 | 34.12600 | -117.29417 | 17388 ft | 355 kts | 250° |
| 2026-04-20 05:25 | 34.11821 | -117.32243 | 16897 ft | 354 kts | 250° |
| 2026-04-20 05:25 | 34.11055 | -117.35023 | 16441 ft | 351 kts | 250° |
| 2026-04-20 05:26 | 34.10312 | -117.37825 | 15966 ft | 350 kts | 251° |
| 2026-04-20 05:26 | 34.09615 | -117.40611 | 15499 ft | 346 kts | 251° |
| 2026-04-20 05:26 | 34.08929 | -117.43353 | 15044 ft | 341 kts | 251° |
| 2026-04-20 05:26 | 34.08246 | -117.46079 | 14588 ft | 336 kts | 251° |
| 2026-04-20 05:27 | 34.07580 | -117.48729 | 14147 ft | 331 kts | 250° |
| 2026-04-20 05:27 | 34.06791 | -117.51322 | 13715 ft | 326 kts | 244° |
| 2026-04-20 05:27 | 34.05893 | -117.53811 | 13299 ft | 324 kts | 244° |
| 2026-04-20 05:27 | 34.04998 | -117.56292 | 12896 ft | 323 kts | 244° |
| 2026-04-20 05:28 | 34.04105 | -117.58767 | 12490 ft | 321 kts | 244° |
| 2026-04-20 05:28 | 34.03217 | -117.61225 | 12087 ft | 318 kts | 244° |
| 2026-04-20 05:28 | 34.02350 | -117.63628 | 11686 ft | 316 kts | 244° |
| 2026-04-20 05:28 | 34.01476 | -117.66047 | 11285 ft | 311 kts | 243° |
| 2026-04-20 05:29 | 34.00700 | -117.68448 | 10898 ft | 307 kts | 253° |
| 2026-04-20 05:29 | 34.00388 | -117.70991 | 10501 ft | 305 kts | 261° |
| 2026-04-20 05:29 | 34.00153 | -117.73495 | 10132 ft | 300 kts | 260° |
| 2026-04-20 05:29 | 33.99914 | -117.75968 | 9745 ft | 296 kts | 260° |
| 2026-04-20 05:30 | 33.99678 | -117.78388 | 9383 ft | 292 kts | 260° |
| 2026-04-20 05:30 | 33.99443 | -117.80796 | 9016 ft | 288 kts | 260° |
| 2026-04-20 05:30 | 33.99212 | -117.83166 | 8652 ft | 285 kts | 260° |
| 2026-04-20 05:30 | 33.98982 | -117.85539 | 8287 ft | 283 kts | 260° |
| 2026-04-20 05:31 | 33.98754 | -117.87880 | 7932 ft | 282 kts | 260° |
| 2026-04-20 05:31 | 33.98526 | -117.90222 | 7578 ft | 278 kts | 261° |
| 2026-04-20 05:31 | 33.98301 | -117.92518 | 7226 ft | 274 kts | 260° |
| 2026-04-20 05:31 | 33.98077 | -117.94801 | 6876 ft | 271 kts | 260° |
| 2026-04-20 05:32 | 33.97858 | -117.97017 | 6535 ft | 267 kts | 260° |
| 2026-04-20 05:32 | 33.97641 | -117.99227 | 6206 ft | 263 kts | 261° |
| 2026-04-20 05:32 | 33.97425 | -118.01406 | 5868 ft | 260 kts | 261° |
| 2026-04-20 05:32 | 33.97213 | -118.03545 | 5545 ft | 257 kts | 261° |
| 2026-04-20 05:33 | 33.97002 | -118.05669 | 5225 ft | 253 kts | 261° |
| 2026-04-20 05:33 | 33.96796 | -118.07741 | 4910 ft | 250 kts | 262° |
| 2026-04-20 05:33 | 33.96590 | -118.09816 | 4617 ft | 246 kts | 262° |
| 2026-04-20 05:33 | 33.96397 | -118.11831 | 4321 ft | 242 kts | 262° |
| 2026-04-20 05:34 | 33.96198 | -118.13834 | 4017 ft | 239 kts | 262° |
| 2026-04-20 05:34 | 33.96004 | -118.15793 | 3702 ft | 233 kts | 262° |
| 2026-04-20 05:34 | 33.95649 | -118.19340 | 3147 ft | 207 kts | 263° |
| 2026-04-20 05:35 | 33.95477 | -118.21060 | 2879 ft | 204 kts | 263° |
| 2026-04-20 05:35 | 33.95309 | -118.22730 | 2614 ft | 202 kts | 263° |
| 2026-04-20 05:35 | 33.95144 | -118.24370 | 2359 ft | 190 kts | 262° |
| 2026-04-20 05:35 | 33.94990 | -118.25899 | 2114 ft | 181 kts | 263° |
| 2026-04-20 05:36 | 33.94840 | -118.27383 | 1879 ft | 172 kts | 262° |
| 2026-04-20 05:36 | 33.94705 | -118.28722 | 1682 ft | 150 kts | 263° |
| 2026-04-20 05:36 | 33.94588 | -118.29881 | 1504 ft | 136 kts | 263° |
| 2026-04-20 05:36 | 33.94476 | -118.30987 | 1294 ft | 131 kts | 263° |
| 2026-04-20 05:37 | 33.94381 | -118.31922 | 1153 ft | 129 kts | 263° |
| 2026-04-20 05:37 | 33.94272 | -118.32992 | 989 ft | 128 kts | 263° |
| 2026-04-20 05:37 | 33.94163 | -118.34069 | 820 ft | 128 kts | 263° |
| 2026-04-20 05:37 | 33.94057 | -118.35120 | 654 ft | 127 kts | 263° |
| 2026-04-20 05:38 | 33.93952 | -118.36158 | 490 ft | 130 kts | 263° |
| 2026-04-20 05:38 | 33.93843 | -118.37247 | 330 ft | 131 kts | 263° |
| 2026-04-20 05:38 | 33.93736 | -118.38304 | 160 ft | 129 kts | 263° |
| 2026-04-20 05:38 | 33.93628 | -118.39366 | 108 ft | 116 kts | 262° |
| 2026-04-20 05:39 | 33.93566 | -118.39917 | 115 ft | 38 kts | 262° |
| 2026-04-20 05:39 | 33.93500 | -118.40182 | 119 ft | 20 kts | 243° |
| 2026-04-20 05:39 | 33.93440 | -118.40205 | 119 ft | 6 kts | 140° |
| 2026-04-20 05:39 | 33.93422 | -118.40184 | 119 ft | 2 kts | 121° |
| 2026-04-20 05:40 | 33.93422 | -118.40143 | 119 ft | 8 kts | 82° |
| 2026-04-20 05:40 | 33.93437 | -118.40003 | 116 ft | 21 kts | 83° |
| 2026-04-20 05:40 | 33.93457 | -118.39808 | 113 ft | 23 kts | 83° |
| 2026-04-20 05:40 | 33.93478 | -118.39603 | 110 ft | 24 kts | 83° |
| 2026-04-20 05:41 | 33.93494 | -118.39455 | 109 ft | 18 kts | 83° |
| 2026-04-20 05:41 | 33.93438 | -118.39394 | 108 ft | 13 kts | 193° |
| 2026-04-20 05:41 | 33.93418 | -118.39483 | 109 ft | 12 kts | 267° |
| 2026-04-20 05:41 | 33.93399 | -118.39534 | 110 ft | 0 kts | 180° |